KPSM/PSM METAR and TAF weather

Enter ICAO airport designator
Station Type Date Time Source
KPSM METAR 2020/01/21 17:56 UTC NOAA

KPSM 211756Z 00000KT 10SM SCT200 M05/M16 A3037 RMK AO2A SLP288 4/004 T10551161 11046 21128 57014


Station Type Date Time Source
KPSM Decoded METAR 2020/01/21 17:56 UTC NOAA

Pease Air Force Base / Portsmouth, NH, United States (KPSM) 43-05N 070-49W
Jan 21, 2020 - 12:56 PM EST / 2020.01.21 1756 UTC
Wind: Calm:0
Visibility: 10 mile(s):0
Sky conditions: partly cloudy
Weather: 4 inches of snow on ground
Temperature: 22.1 F (-5.5 C)
Dew Point: 3.0 F (-16.1 C)
Relative Humidity: 43%
Pressure (altimeter): 30.37 in. Hg (1028 hPa)
Pressure tendency: 0.04 inches (1.4 hPa) lower than three hours ago
ob: KPSM 211756Z 00000KT 10SM SCT200 M05/M16 A3037 RMK AO2A SLP288 4/004 T10551161 11046 21128 57014
cycle: 18

Station Type Date Time Source
KPSM TAF 2020/01/21 18:36 UTC NOAA

TAF KPSM 211732Z 2118/2218 30005KT P6SM SCT100 BKN250

Example: see airport list